sensor_id;sensor_type;location;lat;lon;timestamp;P1;durP1;ratioP1;P2;durP2;ratioP2
15385;SDS011;7791;47.246;9.648;2023-03-11T00:01:49;1.00;;;0.83;;
15385;SDS011;7791;47.246;9.648;2023-03-11T00:04:15;1.73;;;0.70;;
15385;SDS011;7791;47.246;9.648;2023-03-11T00:06:41;1.07;;;0.97;;
15385;SDS011;7791;47.246;9.648;2023-03-11T00:09:08;2.97;;;0.90;;
15385;SDS011;7791;47.246;9.648;2023-03-11T00:11:33;1.33;;;1.20;;
15385;SDS011;7791;47.246;9.648;2023-03-11T00:13:59;1.70;;;1.20;;
15385;SDS011;7791;47.246;9.648;2023-03-11T00:16:25;1.40;;;1.20;;
15385;SDS011;7791;47.246;9.648;2023-03-11T00:18:50;2.57;;;1.10;;
15385;SDS011;7791;47.246;9.648;2023-03-11T00:21:17;1.53;;;1.20;;
15385;SDS011;7791;47.246;9.648;2023-03-11T00:23:43;1.53;;;1.20;;
15385;SDS011;7791;47.246;9.648;2023-03-11T00:26:10;2.07;;;1.30;;
15385;SDS011;7791;47.246;9.648;2023-03-11T00:28:36;2.43;;;1.60;;
15385;SDS011;7791;47.246;9.648;2023-03-11T00:31:02;2.00;;;1.60;;
15385;SDS011;7791;47.246;9.648;2023-03-11T00:33:28;4.07;;;1.50;;
15385;SDS011;7791;47.246;9.648;2023-03-11T00:35:54;2.78;;;1.85;;
15385;SDS011;7791;47.246;9.648;2023-03-11T00:38:24;2.67;;;1.70;;
15385;SDS011;7791;47.246;9.648;2023-03-11T00:40:50;2.60;;;1.63;;
15385;SDS011;7791;47.246;9.648;2023-03-11T00:43:17;3.27;;;2.20;;
15385;SDS011;7791;47.246;9.648;2023-03-11T00:45:43;1.83;;;1.60;;
15385;SDS011;7791;47.246;9.648;2023-03-11T00:48:10;3.23;;;1.80;;
15385;SDS011;7791;47.246;9.648;2023-03-11T00:50:37;2.07;;;1.87;;
15385;SDS011;7791;47.246;9.648;2023-03-11T00:53:03;2.00;;;1.50;;
15385;SDS011;7791;47.246;9.648;2023-03-11T00:55:30;5.37;;;1.73;;
15385;SDS011;7791;47.246;9.648;2023-03-11T00:57:59;4.37;;;1.60;;
15385;SDS011;7791;47.246;9.648;2023-03-11T01:00:27;1.93;;;1.70;;
15385;SDS011;7791;47.246;9.648;2023-03-11T01:02:54;2.43;;;1.70;;
15385;SDS011;7791;47.246;9.648;2023-03-11T01:05:22;2.33;;;1.60;;
15385;SDS011;7791;47.246;9.648;2023-03-11T01:07:50;2.63;;;1.70;;
15385;SDS011;7791;47.246;9.648;2023-03-11T01:10:16;1.90;;;1.53;;
15385;SDS011;7791;47.246;9.648;2023-03-11T01:12:42;1.73;;;1.33;;
15385;SDS011;7791;47.246;9.648;2023-03-11T01:15:10;3.30;;;1.60;;
15385;SDS011;7791;47.246;9.648;2023-03-11T01:17:42;1.93;;;1.47;;
15385;SDS011;7791;47.246;9.648;2023-03-11T01:20:09;2.20;;;1.30;;
15385;SDS011;7791;47.246;9.648;2023-03-11T01:22:36;2.40;;;1.33;;
15385;SDS011;7791;47.246;9.648;2023-03-11T01:25:01;2.93;;;1.50;;
15385;SDS011;7791;47.246;9.648;2023-03-11T01:27:28;1.60;;;1.30;;
15385;SDS011;7791;47.246;9.648;2023-03-11T01:29:53;2.13;;;1.40;;
15385;SDS011;7791;47.246;9.648;2023-03-11T01:32:19;2.80;;;1.70;;
15385;SDS011;7791;47.246;9.648;2023-03-11T01:34:46;2.13;;;1.40;;
15385;SDS011;7791;47.246;9.648;2023-03-11T01:37:12;1.73;;;1.60;;
15385;SDS011;7791;47.246;9.648;2023-03-11T01:39:37;2.10;;;1.60;;
15385;SDS011;7791;47.246;9.648;2023-03-11T01:42:03;1.70;;;1.60;;
15385;SDS011;7791;47.246;9.648;2023-03-11T01:44:29;3.00;;;1.90;;
15385;SDS011;7791;47.246;9.648;2023-03-11T01:49:58;2.10;;;1.77;;
15385;SDS011;7791;47.246;9.648;2023-03-11T01:52:25;3.03;;;2.00;;
15385;SDS011;7791;47.246;9.648;2023-03-11T01:54:51;2.07;;;1.60;;
15385;SDS011;7791;47.246;9.648;2023-03-11T01:57:16;2.13;;;1.70;;
15385;SDS011;7791;47.246;9.648;2023-03-11T01:59:43;1.90;;;1.40;;
15385;SDS011;7791;47.246;9.648;2023-03-11T02:02:13;1.90;;;1.50;;
15385;SDS011;7791;47.246;9.648;2023-03-11T02:04:43;1.73;;;1.30;;
15385;SDS011;7791;47.246;9.648;2023-03-11T02:07:11;2.17;;;1.50;;
15385;SDS011;7791;47.246;9.648;2023-03-11T02:09:38;1.63;;;1.27;;
15385;SDS011;7791;47.246;9.648;2023-03-11T02:12:04;1.40;;;1.23;;
15385;SDS011;7791;47.246;9.648;2023-03-11T02:14:32;2.10;;;1.40;;
15385;SDS011;7791;47.246;9.648;2023-03-11T02:16:59;2.90;;;1.73;;
15385;SDS011;7791;47.246;9.648;2023-03-11T02:19:26;1.33;;;1.23;;
15385;SDS011;7791;47.246;9.648;2023-03-11T02:21:58;1.67;;;1.40;;
15385;SDS011;7791;47.246;9.648;2023-03-11T02:24:29;1.60;;;1.40;;
15385;SDS011;7791;47.246;9.648;2023-03-11T02:27:04;1.70;;;1.53;;
15385;SDS011;7791;47.246;9.648;2023-03-11T02:29:32;2.33;;;1.70;;
15385;SDS011;7791;47.246;9.648;2023-03-11T02:31:58;3.80;;;1.40;;
15385;SDS011;7791;47.246;9.648;2023-03-11T02:34:30;1.63;;;1.30;;
15385;SDS011;7791;47.246;9.648;2023-03-11T02:36:57;1.40;;;1.20;;
15385;SDS011;7791;47.246;9.648;2023-03-11T02:39:28;1.43;;;1.20;;
15385;SDS011;7791;47.246;9.648;2023-03-11T02:41:54;2.40;;;1.80;;
15385;SDS011;7791;47.246;9.648;2023-03-11T02:44:23;2.63;;;1.50;;
15385;SDS011;7791;47.246;9.648;2023-03-11T02:46:49;1.93;;;1.60;;
15385;SDS011;7791;47.246;9.648;2023-03-11T02:49:17;2.77;;;1.83;;
15385;SDS011;7791;47.246;9.648;2023-03-11T02:51:44;2.43;;;1.90;;
15385;SDS011;7791;47.246;9.648;2023-03-11T02:54:15;3.47;;;2.00;;
15385;SDS011;7791;47.246;9.648;2023-03-11T02:56:40;2.93;;;2.03;;
15385;SDS011;7791;47.246;9.648;2023-03-11T02:59:06;3.77;;;2.00;;
15385;SDS011;7791;47.246;9.648;2023-03-11T03:01:33;2.60;;;2.10;;
15385;SDS011;7791;47.246;9.648;2023-03-11T03:03:59;3.17;;;2.10;;
15385;SDS011;7791;47.246;9.648;2023-03-11T03:06:24;2.47;;;1.90;;
15385;SDS011;7791;47.246;9.648;2023-03-11T03:08:50;3.03;;;2.20;;
15385;SDS011;7791;47.246;9.648;2023-03-11T03:11:16;2.80;;;2.50;;
15385;SDS011;7791;47.246;9.648;2023-03-11T03:13:41;2.80;;;2.20;;
15385;SDS011;7791;47.246;9.648;2023-03-11T03:16:07;3.83;;;2.43;;
15385;SDS011;7791;47.246;9.648;2023-03-11T03:18:34;3.93;;;2.23;;
15385;SDS011;7791;47.246;9.648;2023-03-11T03:21:00;3.80;;;2.50;;
15385;SDS011;7791;47.246;9.648;2023-03-11T03:23:25;3.27;;;2.40;;
15385;SDS011;7791;47.246;9.648;2023-03-11T03:25:54;3.97;;;2.80;;
15385;SDS011;7791;47.246;9.648;2023-03-11T03:28:20;5.30;;;2.73;;
15385;SDS011;7791;47.246;9.648;2023-03-11T03:30:46;5.17;;;3.07;;
15385;SDS011;7791;47.246;9.648;2023-03-11T03:33:11;4.37;;;3.10;;
15385;SDS011;7791;47.246;9.648;2023-03-11T03:35:41;3.80;;;3.00;;
15385;SDS011;7791;47.246;9.648;2023-03-11T03:38:08;4.20;;;3.00;;
15385;SDS011;7791;47.246;9.648;2023-03-11T03:40:33;4.03;;;2.83;;
15385;SDS011;7791;47.246;9.648;2023-03-11T03:42:59;4.43;;;2.90;;
15385;SDS011;7791;47.246;9.648;2023-03-11T03:45:25;3.90;;;3.00;;
15385;SDS011;7791;47.246;9.648;2023-03-11T03:47:51;3.07;;;2.70;;
15385;SDS011;7791;47.246;9.648;2023-03-11T03:50:17;3.70;;;3.00;;
15385;SDS011;7791;47.246;9.648;2023-03-11T03:52:44;2.93;;;2.40;;
15385;SDS011;7791;47.246;9.648;2023-03-11T03:55:09;4.30;;;2.80;;
15385;SDS011;7791;47.246;9.648;2023-03-11T03:57:35;4.47;;;2.60;;
15385;SDS011;7791;47.246;9.648;2023-03-11T04:00:01;3.77;;;2.80;;
15385;SDS011;7791;47.246;9.648;2023-03-11T04:02:28;3.93;;;2.70;;
15385;SDS011;7791;47.246;9.648;2023-03-11T04:04:54;2.97;;;2.47;;
15385;SDS011;7791;47.246;9.648;2023-03-11T04:07:20;3.83;;;2.60;;
15385;SDS011;7791;47.246;9.648;2023-03-11T04:09:47;3.57;;;2.93;;
15385;SDS011;7791;47.246;9.648;2023-03-11T04:12:13;3.97;;;2.40;;
15385;SDS011;7791;47.246;9.648;2023-03-11T04:14:40;2.63;;;2.10;;
15385;SDS011;7791;47.246;9.648;2023-03-11T04:17:05;3.53;;;2.00;;
15385;SDS011;7791;47.246;9.648;2023-03-11T04:19:31;2.20;;;1.70;;
15385;SDS011;7791;47.246;9.648;2023-03-11T04:21:57;2.20;;;1.70;;
15385;SDS011;7791;47.246;9.648;2023-03-11T04:24:23;3.27;;;1.60;;
15385;SDS011;7791;47.246;9.648;2023-03-11T04:26:50;1.50;;;1.40;;
15385;SDS011;7791;47.246;9.648;2023-03-11T04:29:15;1.97;;;1.70;;
15385;SDS011;7791;47.246;9.648;2023-03-11T04:31:41;2.13;;;1.70;;
15385;SDS011;7791;47.246;9.648;2023-03-11T04:34:07;1.47;;;1.20;;
15385;SDS011;7791;47.246;9.648;2023-03-11T04:36:32;1.63;;;1.40;;
15385;SDS011;7791;47.246;9.648;2023-03-11T04:38:58;1.50;;;1.40;;
15385;SDS011;7791;47.246;9.648;2023-03-11T04:41:24;1.83;;;1.57;;
15385;SDS011;7791;47.246;9.648;2023-03-11T04:43:51;1.60;;;1.30;;
15385;SDS011;7791;47.246;9.648;2023-03-11T04:46:17;3.00;;;1.30;;
15385;SDS011;7791;47.246;9.648;2023-03-11T04:48:42;1.50;;;1.20;;
15385;SDS011;7791;47.246;9.648;2023-03-11T04:51:08;1.57;;;1.10;;
15385;SDS011;7791;47.246;9.648;2023-03-11T04:53:34;1.53;;;1.10;;
15385;SDS011;7791;47.246;9.648;2023-03-11T04:55:59;1.30;;;1.00;;
15385;SDS011;7791;47.246;9.648;2023-03-11T04:58:25;1.30;;;1.10;;
15385;SDS011;7791;47.246;9.648;2023-03-11T05:00:52;0.80;;;0.80;;
15385;SDS011;7791;47.246;9.648;2023-03-11T05:03:18;1.00;;;0.67;;
15385;SDS011;7791;47.246;9.648;2023-03-11T05:05:43;1.00;;;0.70;;
15385;SDS011;7791;47.246;9.648;2023-03-11T05:08:09;0.90;;;0.70;;
15385;SDS011;7791;47.246;9.648;2023-03-11T05:10:35;0.70;;;0.63;;
15385;SDS011;7791;47.246;9.648;2023-03-11T05:13:03;1.17;;;0.63;;
15385;SDS011;7791;47.246;9.648;2023-03-11T05:15:28;1.10;;;0.63;;
15385;SDS011;7791;47.246;9.648;2023-03-11T05:17:55;1.00;;;0.80;;
15385;SDS011;7791;47.246;9.648;2023-03-11T05:20:21;0.87;;;0.77;;
15385;SDS011;7791;47.246;9.648;2023-03-11T05:22:47;1.87;;;0.87;;
15385;SDS011;7791;47.246;9.648;2023-03-11T05:25:13;0.70;;;0.70;;
15385;SDS011;7791;47.246;9.648;2023-03-11T05:27:39;1.20;;;0.90;;
15385;SDS011;7791;47.246;9.648;2023-03-11T05:30:05;1.50;;;0.90;;
15385;SDS011;7791;47.246;9.648;2023-03-11T05:32:32;0.80;;;0.67;;
15385;SDS011;7791;47.246;9.648;2023-03-11T05:34:59;1.20;;;0.97;;
15385;SDS011;7791;47.246;9.648;2023-03-11T05:37:24;1.10;;;1.00;;
15385;SDS011;7791;47.246;9.648;2023-03-11T05:39:50;0.90;;;0.80;;
15385;SDS011;7791;47.246;9.648;2023-03-11T05:42:16;2.80;;;0.93;;
15385;SDS011;7791;47.246;9.648;2023-03-11T05:44:42;1.40;;;1.00;;
15385;SDS011;7791;47.246;9.648;2023-03-11T05:47:07;1.43;;;1.00;;
15385;SDS011;7791;47.246;9.648;2023-03-11T05:49:33;2.70;;;1.20;;
15385;SDS011;7791;47.246;9.648;2023-03-11T05:52:00;1.30;;;1.10;;
15385;SDS011;7791;47.246;9.648;2023-03-11T05:54:26;1.90;;;1.10;;
15385;SDS011;7791;47.246;9.648;2023-03-11T05:56:52;1.87;;;1.27;;
15385;SDS011;7791;47.246;9.648;2023-03-11T05:59:17;2.80;;;1.50;;
15385;SDS011;7791;47.246;9.648;2023-03-11T06:01:43;2.67;;;1.53;;
15385;SDS011;7791;47.246;9.648;2023-03-11T06:04:09;2.20;;;1.60;;
15385;SDS011;7791;47.246;9.648;2023-03-11T06:06:35;3.00;;;1.90;;
15385;SDS011;7791;47.246;9.648;2023-03-11T06:09:03;3.20;;;2.13;;
15385;SDS011;7791;47.246;9.648;2023-03-11T06:11:29;4.53;;;1.97;;
15385;SDS011;7791;47.246;9.648;2023-03-11T06:13:55;2.47;;;1.73;;
15385;SDS011;7791;47.246;9.648;2023-03-11T06:16:22;2.03;;;1.53;;
15385;SDS011;7791;47.246;9.648;2023-03-11T06:18:49;2.10;;;1.70;;
15385;SDS011;7791;47.246;9.648;2023-03-11T06:21:15;3.30;;;1.67;;
15385;SDS011;7791;47.246;9.648;2023-03-11T06:23:42;2.63;;;1.70;;
15385;SDS011;7791;47.246;9.648;2023-03-11T06:26:09;3.30;;;1.60;;
15385;SDS011;7791;47.246;9.648;2023-03-11T06:28:38;2.77;;;1.43;;
15385;SDS011;7791;47.246;9.648;2023-03-11T06:31:07;2.80;;;1.40;;
15385;SDS011;7791;47.246;9.648;2023-03-11T06:33:33;2.10;;;1.40;;
15385;SDS011;7791;47.246;9.648;2023-03-11T06:35:59;2.57;;;1.80;;
15385;SDS011;7791;47.246;9.648;2023-03-11T06:38:26;2.57;;;1.40;;
15385;SDS011;7791;47.246;9.648;2023-03-11T06:40:52;2.50;;;1.67;;
15385;SDS011;7791;47.246;9.648;2023-03-11T06:43:20;2.00;;;1.50;;
15385;SDS011;7791;47.246;9.648;2023-03-11T06:45:46;4.37;;;1.73;;
15385;SDS011;7791;47.246;9.648;2023-03-11T06:48:12;2.50;;;1.83;;
15385;SDS011;7791;47.246;9.648;2023-03-11T06:50:37;5.27;;;1.87;;
15385;SDS011;7791;47.246;9.648;2023-03-11T06:53:03;2.80;;;2.30;;
15385;SDS011;7791;47.246;9.648;2023-03-11T06:55:29;4.10;;;2.30;;
15385;SDS011;7791;47.246;9.648;2023-03-11T06:57:55;4.07;;;2.53;;
15385;SDS011;7791;47.246;9.648;2023-03-11T07:00:22;3.37;;;2.40;;
15385;SDS011;7791;47.246;9.648;2023-03-11T07:02:47;3.90;;;2.30;;
15385;SDS011;7791;47.246;9.648;2023-03-11T07:05:13;3.53;;;2.60;;
15385;SDS011;7791;47.246;9.648;2023-03-11T07:07:39;3.73;;;2.73;;
15385;SDS011;7791;47.246;9.648;2023-03-11T07:10:05;7.50;;;5.30;;
15385;SDS011;7791;47.246;9.648;2023-03-11T07:12:32;5.53;;;3.40;;
15385;SDS011;7791;47.246;9.648;2023-03-11T07:14:58;5.40;;;4.07;;
15385;SDS011;7791;47.246;9.648;2023-03-11T07:17:26;6.90;;;4.13;;
15385;SDS011;7791;47.246;9.648;2023-03-11T07:19:52;9.50;;;5.03;;
15385;SDS011;7791;47.246;9.648;2023-03-11T07:22:18;5.20;;;3.60;;
15385;SDS011;7791;47.246;9.648;2023-03-11T07:24:44;4.73;;;3.27;;
15385;SDS011;7791;47.246;9.648;2023-03-11T07:27:10;6.57;;;4.17;;
15385;SDS011;7791;47.246;9.648;2023-03-11T07:29:36;9.13;;;4.53;;
15385;SDS011;7791;47.246;9.648;2023-03-11T07:32:02;7.83;;;4.43;;
15385;SDS011;7791;47.246;9.648;2023-03-11T07:34:29;7.73;;;4.60;;
15385;SDS011;7791;47.246;9.648;2023-03-11T07:36:55;8.97;;;5.10;;
15385;SDS011;7791;47.246;9.648;2023-03-11T07:39:20;13.13;;;7.40;;
15385;SDS011;7791;47.246;9.648;2023-03-11T07:41:46;11.97;;;7.50;;
15385;SDS011;7791;47.246;9.648;2023-03-11T07:44:12;17.87;;;9.97;;
15385;SDS011;7791;47.246;9.648;2023-03-11T07:46:39;11.97;;;7.37;;
15385;SDS011;7791;47.246;9.648;2023-03-11T07:49:05;13.43;;;8.73;;
15385;SDS011;7791;47.246;9.648;2023-03-11T07:51:33;8.97;;;5.73;;
15385;SDS011;7791;47.246;9.648;2023-03-11T07:54:00;8.70;;;5.30;;
15385;SDS011;7791;47.246;9.648;2023-03-11T07:56:27;8.60;;;5.57;;
15385;SDS011;7791;47.246;9.648;2023-03-11T07:58:54;10.10;;;6.00;;
15385;SDS011;7791;47.246;9.648;2023-03-11T08:01:22;11.30;;;5.60;;
15385;SDS011;7791;47.246;9.648;2023-03-11T08:03:49;12.73;;;6.40;;
15385;SDS011;7791;47.246;9.648;2023-03-11T08:06:16;17.67;;;9.13;;
15385;SDS011;7791;47.246;9.648;2023-03-11T08:08:44;10.30;;;6.20;;
15385;SDS011;7791;47.246;9.648;2023-03-11T08:11:11;11.27;;;7.03;;
15385;SDS011;7791;47.246;9.648;2023-03-11T08:13:37;11.87;;;6.53;;
15385;SDS011;7791;47.246;9.648;2023-03-11T08:16:03;11.63;;;6.07;;
15385;SDS011;7791;47.246;9.648;2023-03-11T08:18:30;10.97;;;6.60;;
15385;SDS011;7791;47.246;9.648;2023-03-11T08:20:55;24.30;;;13.93;;
15385;SDS011;7791;47.246;9.648;2023-03-11T08:23:21;13.07;;;9.30;;
15385;SDS011;7791;47.246;9.648;2023-03-11T08:25:48;10.00;;;5.80;;
15385;SDS011;7791;47.246;9.648;2023-03-11T08:28:14;10.93;;;6.30;;
15385;SDS011;7791;47.246;9.648;2023-03-11T08:30:40;12.87;;;6.97;;
15385;SDS011;7791;47.246;9.648;2023-03-11T08:33:06;12.07;;;7.40;;
15385;SDS011;7791;47.246;9.648;2023-03-11T08:35:32;13.33;;;9.23;;
15385;SDS011;7791;47.246;9.648;2023-03-11T08:37:58;12.07;;;7.00;;
15385;SDS011;7791;47.246;9.648;2023-03-11T08:40:23;16.97;;;7.87;;
15385;SDS011;7791;47.246;9.648;2023-03-11T08:42:51;12.63;;;7.97;;
15385;SDS011;7791;47.246;9.648;2023-03-11T08:45:19;10.57;;;7.37;;
15385;SDS011;7791;47.246;9.648;2023-03-11T08:47:44;13.40;;;8.27;;
15385;SDS011;7791;47.246;9.648;2023-03-11T08:50:11;14.17;;;7.40;;
15385;SDS011;7791;47.246;9.648;2023-03-11T08:52:38;12.97;;;7.33;;
15385;SDS011;7791;47.246;9.648;2023-03-11T08:55:04;10.57;;;6.90;;
15385;SDS011;7791;47.246;9.648;2023-03-11T08:57:31;12.67;;;7.30;;
15385;SDS011;7791;47.246;9.648;2023-03-11T08:59:59;12.23;;;7.30;;
15385;SDS011;7791;47.246;9.648;2023-03-11T09:02:26;12.60;;;7.40;;
15385;SDS011;7791;47.246;9.648;2023-03-11T09:04:51;13.23;;;7.67;;
15385;SDS011;7791;47.246;9.648;2023-03-11T09:07:17;12.47;;;7.77;;
15385;SDS011;7791;47.246;9.648;2023-03-11T09:09:43;14.37;;;8.03;;
15385;SDS011;7791;47.246;9.648;2023-03-11T09:12:09;11.57;;;6.87;;
15385;SDS011;7791;47.246;9.648;2023-03-11T09:14:35;12.50;;;6.87;;
15385;SDS011;7791;47.246;9.648;2023-03-11T09:17:02;12.20;;;6.80;;
15385;SDS011;7791;47.246;9.648;2023-03-11T09:19:27;13.63;;;6.70;;
15385;SDS011;7791;47.246;9.648;2023-03-11T09:21:53;9.50;;;5.90;;
15385;SDS011;7791;47.246;9.648;2023-03-11T09:24:19;11.83;;;6.53;;
15385;SDS011;7791;47.246;9.648;2023-03-11T09:26:45;8.77;;;6.07;;
15385;SDS011;7791;47.246;9.648;2023-03-11T09:29:10;9.83;;;6.30;;
15385;SDS011;7791;47.246;9.648;2023-03-11T09:31:36;12.33;;;6.87;;
15385;SDS011;7791;47.246;9.648;2023-03-11T09:34:03;11.53;;;6.43;;
15385;SDS011;7791;47.246;9.648;2023-03-11T09:36:30;10.27;;;6.10;;
15385;SDS011;7791;47.246;9.648;2023-03-11T09:38:55;12.07;;;6.00;;
15385;SDS011;7791;47.246;9.648;2023-03-11T09:41:26;9.33;;;6.00;;
15385;SDS011;7791;47.246;9.648;2023-03-11T09:44:01;10.43;;;6.17;;
15385;SDS011;7791;47.246;9.648;2023-03-11T09:49:53;9.67;;;5.67;;
15385;SDS011;7791;47.246;9.648;2023-03-11T09:52:45;12.87;;;6.07;;
15385;SDS011;7791;47.246;9.648;2023-03-11T09:55:23;10.50;;;6.20;;
15385;SDS011;7791;47.246;9.648;2023-03-11T09:57:56;14.63;;;6.83;;
15385;SDS011;7791;47.246;9.648;2023-03-11T10:00:26;9.70;;;6.27;;
15385;SDS011;7791;47.246;9.648;2023-03-11T10:02:52;8.90;;;5.63;;
15385;SDS011;7791;47.246;9.648;2023-03-11T10:05:22;7.67;;;5.37;;
15385;SDS011;7791;47.246;9.648;2023-03-11T10:07:51;10.83;;;6.40;;
15385;SDS011;7791;47.246;9.648;2023-03-11T10:10:22;11.93;;;6.00;;
15385;SDS011;7791;47.246;9.648;2023-03-11T10:12:51;9.60;;;6.20;;
15385;SDS011;7791;47.246;9.648;2023-03-11T10:15:26;8.33;;;5.57;;
15385;SDS011;7791;47.246;9.648;2023-03-11T10:18:04;8.63;;;6.17;;
15385;SDS011;7791;47.246;9.648;2023-03-11T10:20:44;9.80;;;5.67;;
15385;SDS011;7791;47.246;9.648;2023-03-11T10:23:19;7.87;;;5.30;;
15385;SDS011;7791;47.246;9.648;2023-03-11T10:25:52;9.27;;;5.80;;
15385;SDS011;7791;47.246;9.648;2023-03-11T10:28:25;9.87;;;5.57;;
15385;SDS011;7791;47.246;9.648;2023-03-11T10:30:56;9.70;;;5.77;;
15385;SDS011;7791;47.246;9.648;2023-03-11T10:33:26;12.33;;;5.93;;
15385;SDS011;7791;47.246;9.648;2023-03-11T10:36:00;9.53;;;5.83;;
15385;SDS011;7791;47.246;9.648;2023-03-11T10:38:30;9.27;;;5.80;;
15385;SDS011;7791;47.246;9.648;2023-03-11T10:41:00;12.33;;;6.30;;
15385;SDS011;7791;47.246;9.648;2023-03-11T10:43:31;10.30;;;5.70;;
15385;SDS011;7791;47.246;9.648;2023-03-11T10:46:03;9.27;;;6.20;;
15385;SDS011;7791;47.246;9.648;2023-03-11T10:48:37;12.17;;;5.87;;
15385;SDS011;7791;47.246;9.648;2023-03-11T10:51:10;9.87;;;6.27;;
15385;SDS011;7791;47.246;9.648;2023-03-11T10:53:43;10.03;;;5.87;;
15385;SDS011;7791;47.246;9.648;2023-03-11T10:56:14;9.07;;;5.83;;
15385;SDS011;7791;47.246;9.648;2023-03-11T10:58:49;9.47;;;5.70;;
15385;SDS011;7791;47.246;9.648;2023-03-11T11:01:16;7.80;;;5.20;;
15385;SDS011;7791;47.246;9.648;2023-03-11T11:03:43;8.87;;;5.10;;
15385;SDS011;7791;47.246;9.648;2023-03-11T11:06:20;8.03;;;5.03;;
15385;SDS011;7791;47.246;9.648;2023-03-11T11:08:48;7.43;;;5.20;;
15385;SDS011;7791;47.246;9.648;2023-03-11T11:11:37;7.07;;;4.97;;
15385;SDS011;7791;47.246;9.648;2023-03-11T11:14:03;6.13;;;4.50;;
15385;SDS011;7791;47.246;9.648;2023-03-11T11:16:28;6.90;;;4.50;;
15385;SDS011;7791;47.246;9.648;2023-03-11T11:18:57;6.87;;;4.03;;
15385;SDS011;7791;47.246;9.648;2023-03-11T11:21:29;6.57;;;4.40;;
15385;SDS011;7791;47.246;9.648;2023-03-11T11:24:05;5.37;;;3.87;;
15385;SDS011;7791;47.246;9.648;2023-03-11T11:26:38;5.80;;;3.80;;
15385;SDS011;7791;47.246;9.648;2023-03-11T11:29:05;4.73;;;3.27;;
15385;SDS011;7791;47.246;9.648;2023-03-11T11:31:36;7.70;;;4.10;;
15385;SDS011;7791;47.246;9.648;2023-03-11T11:34:13;6.40;;;4.47;;
15385;SDS011;7791;47.246;9.648;2023-03-11T11:36:52;9.23;;;4.53;;
15385;SDS011;7791;47.246;9.648;2023-03-11T11:39:20;7.27;;;4.27;;
15385;SDS011;7791;47.246;9.648;2023-03-11T11:41:47;8.07;;;4.80;;
15385;SDS011;7791;47.246;9.648;2023-03-11T11:44:14;6.53;;;3.67;;
15385;SDS011;7791;47.246;9.648;2023-03-11T11:46:46;5.87;;;4.10;;
15385;SDS011;7791;47.246;9.648;2023-03-11T11:49:18;5.50;;;4.17;;
15385;SDS011;7791;47.246;9.648;2023-03-11T11:51:48;6.80;;;4.10;;
15385;SDS011;7791;47.246;9.648;2023-03-11T11:54:20;5.07;;;3.90;;
15385;SDS011;7791;47.246;9.648;2023-03-11T11:56:52;6.10;;;4.70;;
15385;SDS011;7791;47.246;9.648;2023-03-11T11:59:19;5.33;;;4.27;;
15385;SDS011;7791;47.246;9.648;2023-03-11T12:01:48;6.17;;;4.33;;
15385;SDS011;7791;47.246;9.648;2023-03-11T12:04:30;5.10;;;4.07;;
15385;SDS011;7791;47.246;9.648;2023-03-11T12:07:09;6.17;;;3.93;;
15385;SDS011;7791;47.246;9.648;2023-03-11T12:09:59;4.80;;;4.07;;
15385;SDS011;7791;47.246;9.648;2023-03-11T12:12:40;5.63;;;4.37;;
15385;SDS011;7791;47.246;9.648;2023-03-11T12:15:17;5.47;;;4.10;;
15385;SDS011;7791;47.246;9.648;2023-03-11T12:17:48;5.47;;;3.67;;
15385;SDS011;7791;47.246;9.648;2023-03-11T12:20:17;4.80;;;4.20;;
15385;SDS011;7791;47.246;9.648;2023-03-11T12:23:02;4.67;;;4.03;;
15385;SDS011;7791;47.246;9.648;2023-03-11T12:25:46;5.20;;;4.10;;
15385;SDS011;7791;47.246;9.648;2023-03-11T12:28:23;6.27;;;4.07;;
15385;SDS011;7791;47.246;9.648;2023-03-11T12:31:00;6.00;;;4.57;;
15385;SDS011;7791;47.246;9.648;2023-03-11T12:33:29;4.87;;;4.33;;
15385;SDS011;7791;47.246;9.648;2023-03-11T12:38:46;7.30;;;5.23;;
15385;SDS011;7791;47.246;9.648;2023-03-11T12:41:26;8.33;;;5.33;;
15385;SDS011;7791;47.246;9.648;2023-03-11T12:43:58;9.40;;;5.33;;
15385;SDS011;7791;47.246;9.648;2023-03-11T12:49:23;6.07;;;4.50;;
15385;SDS011;7791;47.246;9.648;2023-03-11T12:52:00;5.50;;;4.53;;
15385;SDS011;7791;47.246;9.648;2023-03-11T12:54:41;8.33;;;4.97;;
15385;SDS011;7791;47.246;9.648;2023-03-11T12:57:12;7.77;;;5.00;;
15385;SDS011;7791;47.246;9.648;2023-03-11T13:00:02;6.47;;;5.07;;
15385;SDS011;7791;47.246;9.648;2023-03-11T13:08:43;5.17;;;3.93;;
15385;SDS011;7791;47.246;9.648;2023-03-11T13:11:25;4.90;;;3.80;;
15385;SDS011;7791;47.246;9.648;2023-03-11T13:14:24;4.70;;;3.97;;
15385;SDS011;7791;47.246;9.648;2023-03-11T13:16:52;7.10;;;4.27;;
15385;SDS011;7791;47.246;9.648;2023-03-11T13:19:34;6.63;;;4.63;;
15385;SDS011;7791;47.246;9.648;2023-03-11T13:25:28;7.17;;;4.23;;
15385;SDS011;7791;47.246;9.648;2023-03-11T13:27:57;6.07;;;4.40;;
15385;SDS011;7791;47.246;9.648;2023-03-11T13:33:44;6.23;;;4.20;;
15385;SDS011;7791;47.246;9.648;2023-03-11T13:36:28;4.53;;;3.77;;
15385;SDS011;7791;47.246;9.648;2023-03-11T13:42:02;6.87;;;3.83;;
15385;SDS011;7791;47.246;9.648;2023-03-11T13:44:40;5.47;;;4.33;;
15385;SDS011;7791;47.246;9.648;2023-03-11T13:47:15;5.60;;;4.30;;
15385;SDS011;7791;47.246;9.648;2023-03-11T13:49:52;4.87;;;3.97;;
15385;SDS011;7791;47.246;9.648;2023-03-11T13:52:43;5.40;;;4.23;;
15385;SDS011;7791;47.246;9.648;2023-03-11T13:55:18;4.70;;;3.90;;
15385;SDS011;7791;47.246;9.648;2023-03-11T13:57:53;6.77;;;4.03;;
15385;SDS011;7791;47.246;9.648;2023-03-11T14:00:23;5.20;;;4.00;;
15385;SDS011;7791;47.246;9.648;2023-03-11T14:05:42;5.57;;;4.33;;
15385;SDS011;7791;47.246;9.648;2023-03-11T14:08:18;5.13;;;4.00;;
15385;SDS011;7791;47.246;9.648;2023-03-11T14:10:54;11.37;;;5.63;;
15385;SDS011;7791;47.246;9.648;2023-03-11T14:13:30;5.23;;;4.23;;
15385;SDS011;7791;47.246;9.648;2023-03-11T14:16:19;4.03;;;3.53;;
15385;SDS011;7791;47.246;9.648;2023-03-11T14:21:43;4.50;;;3.40;;
15385;SDS011;7791;47.246;9.648;2023-03-11T14:24:14;5.20;;;3.53;;
15385;SDS011;7791;47.246;9.648;2023-03-11T14:26:42;4.33;;;3.30;;
15385;SDS011;7791;47.246;9.648;2023-03-11T14:29:10;5.47;;;3.50;;
15385;SDS011;7791;47.246;9.648;2023-03-11T14:31:40;3.87;;;3.30;;
15385;SDS011;7791;47.246;9.648;2023-03-11T14:34:14;3.97;;;3.57;;
15385;SDS011;7791;47.246;9.648;2023-03-11T14:37:14;4.07;;;3.47;;
15385;SDS011;7791;47.246;9.648;2023-03-11T14:39:54;4.97;;;3.87;;
15385;SDS011;7791;47.246;9.648;2023-03-11T14:42:23;5.70;;;4.27;;
15385;SDS011;7791;47.246;9.648;2023-03-11T14:45:01;4.33;;;3.70;;
15385;SDS011;7791;47.246;9.648;2023-03-11T14:47:34;4.23;;;3.63;;
15385;SDS011;7791;47.246;9.648;2023-03-11T14:50:14;5.17;;;3.70;;
15385;SDS011;7791;47.246;9.648;2023-03-11T14:52:44;4.10;;;3.67;;
15385;SDS011;7791;47.246;9.648;2023-03-11T14:55:16;5.27;;;4.43;;
15385;SDS011;7791;47.246;9.648;2023-03-11T14:57:54;4.90;;;4.17;;
15385;SDS011;7791;47.246;9.648;2023-03-11T15:00:29;4.73;;;3.97;;
15385;SDS011;7791;47.246;9.648;2023-03-11T15:03:03;5.23;;;4.53;;
15385;SDS011;7791;47.246;9.648;2023-03-11T15:05:48;5.87;;;4.50;;
15385;SDS011;7791;47.246;9.648;2023-03-11T15:08:19;7.50;;;4.37;;
15385;SDS011;7791;47.246;9.648;2023-03-11T15:11:04;6.40;;;4.63;;
15385;SDS011;7791;47.246;9.648;2023-03-11T15:13:39;7.40;;;4.93;;
15385;SDS011;7791;47.246;9.648;2023-03-11T15:16:19;6.80;;;5.00;;
15385;SDS011;7791;47.246;9.648;2023-03-11T15:18:53;6.83;;;5.10;;
15385;SDS011;7791;47.246;9.648;2023-03-11T15:21:32;6.97;;;5.10;;
15385;SDS011;7791;47.246;9.648;2023-03-11T15:23:59;6.60;;;4.67;;
15385;SDS011;7791;47.246;9.648;2023-03-11T15:26:27;5.60;;;4.43;;
15385;SDS011;7791;47.246;9.648;2023-03-11T15:28:56;5.40;;;4.50;;
15385;SDS011;7791;47.246;9.648;2023-03-11T15:31:33;8.23;;;5.17;;
15385;SDS011;7791;47.246;9.648;2023-03-11T15:34:10;5.37;;;4.43;;
15385;SDS011;7791;47.246;9.648;2023-03-11T15:36:58;7.33;;;5.40;;
15385;SDS011;7791;47.246;9.648;2023-03-11T15:39:42;7.63;;;5.73;;
15385;SDS011;7791;47.246;9.648;2023-03-11T15:42:11;9.00;;;6.43;;
15385;SDS011;7791;47.246;9.648;2023-03-11T15:44:41;8.20;;;6.30;;
15385;SDS011;7791;47.246;9.648;2023-03-11T15:47:35;11.07;;;7.00;;